createdAt,value
2023-03-11T00:02:03.279Z,0.50
2023-03-11T00:04:10.644Z,0.50
2023-03-11T00:06:15.304Z,0.40
2023-03-11T00:08:22.757Z,0.50
2023-03-11T00:10:30.262Z,0.50
2023-03-11T00:12:35.309Z,0.80
2023-03-11T00:14:40.055Z,0.40
2023-03-11T00:16:47.449Z,0.60
2023-03-11T00:18:53.557Z,0.50
2023-03-11T00:20:59.588Z,0.60
2023-03-11T00:23:05.698Z,0.50
2023-03-11T00:25:12.022Z,0.50
2023-03-11T00:27:16.637Z,0.50
2023-03-11T00:29:22.300Z,0.50
2023-03-11T00:31:27.181Z,0.60
2023-03-11T00:33:31.895Z,0.50
2023-03-11T00:35:37.317Z,0.60
2023-03-11T00:37:42.184Z,0.40
2023-03-11T00:39:46.792Z,0.30
2023-03-11T00:41:51.510Z,0.50
2023-03-11T00:43:56.221Z,0.40
2023-03-11T00:46:01.167Z,0.40
2023-03-11T00:48:06.266Z,0.40
2023-03-11T00:50:16.299Z,0.50
2023-03-11T00:52:21.020Z,0.40
2023-03-11T00:54:26.136Z,0.40
2023-03-11T00:56:30.982Z,0.30
2023-03-11T00:58:35.620Z,0.30
2023-03-11T01:00:41.368Z,0.40
2023-03-11T01:02:46.268Z,0.40
2023-03-11T01:04:55.212Z,0.50
2023-03-11T01:06:59.962Z,0.80
2023-03-11T01:09:04.943Z,0.70
2023-03-11T01:11:10.060Z,0.50
2023-03-11T01:13:14.734Z,0.60
2023-03-11T01:15:23.700Z,0.70
2023-03-11T01:17:28.406Z,0.60
2023-03-11T01:19:33.072Z,0.50
2023-03-11T01:21:39.054Z,0.60
2023-03-11T01:23:44.899Z,0.70
2023-03-11T01:25:49.926Z,0.70
2023-03-11T01:27:54.581Z,0.50
2023-03-11T01:29:59.294Z,0.50
2023-03-11T01:32:04.476Z,0.40
2023-03-11T01:34:09.249Z,0.60
2023-03-11T01:36:13.888Z,0.60
2023-03-11T01:38:18.611Z,0.60
2023-03-11T01:40:26.956Z,0.40
2023-03-11T01:42:31.747Z,0.40
2023-03-11T01:44:36.462Z,0.60
2023-03-11T01:47:20.021Z,0.50
2023-03-11T01:49:24.769Z,0.50
2023-03-11T01:51:33.422Z,0.50
2023-03-11T01:53:38.181Z,0.80
2023-03-11T01:55:43.492Z,0.80
2023-03-11T01:57:49.618Z,0.70
2023-03-11T01:59:58.598Z,0.70
2023-03-11T02:02:09.783Z,0.60
2023-03-11T02:04:16.085Z,0.80
2023-03-11T02:06:23.877Z,0.80
2023-03-11T02:08:29.339Z,0.70
2023-03-11T02:10:34.420Z,0.50
2023-03-11T02:12:39.934Z,0.60
2023-03-11T02:14:48.421Z,0.60
2023-03-11T02:16:53.228Z,0.50
2023-03-11T02:19:00.472Z,0.50
2023-03-11T02:21:15.976Z,0.60
2023-03-11T02:23:24.882Z,0.50
2023-03-11T02:25:36.232Z,0.50
2023-03-11T02:27:45.470Z,0.60
2023-03-11T02:29:51.356Z,0.60
2023-03-11T02:31:56.953Z,0.50
2023-03-11T02:34:05.930Z,0.50
2023-03-11T02:36:32.239Z,0.40
2023-03-11T02:38:37.251Z,0.70
2023-03-11T02:40:51.848Z,0.60
2023-03-11T02:43:00.436Z,0.70
2023-03-11T02:45:09.175Z,0.40
2023-03-11T02:47:14.523Z,0.80
2023-03-11T02:49:20.474Z,0.90
2023-03-11T02:51:25.331Z,0.60
2023-03-11T02:53:33.044Z,0.60
2023-03-11T02:55:38.244Z,0.60
2023-03-11T02:57:44.802Z,0.50
2023-03-11T02:59:49.478Z,0.40
2023-03-11T03:01:54.814Z,0.70
2023-03-11T03:03:59.648Z,0.60
2023-03-11T03:06:05.306Z,0.50
2023-03-11T03:08:10.084Z,0.70
2023-03-11T03:10:16.866Z,0.70
2023-03-11T03:12:21.640Z,0.80
2023-03-11T03:14:26.458Z,0.70
2023-03-11T03:16:31.193Z,0.70
2023-03-11T03:18:35.950Z,0.60
2023-03-11T03:20:40.632Z,0.80
2023-03-11T03:22:45.641Z,0.70
2023-03-11T03:24:51.922Z,0.80
2023-03-11T03:26:56.729Z,0.70
2023-03-11T03:29:01.534Z,1.00
2023-03-11T03:31:08.060Z,0.80
2023-03-11T03:33:13.398Z,0.70
2023-03-11T03:35:18.562Z,0.50
2023-03-11T03:37:43.540Z,0.70
2023-03-11T03:39:48.196Z,0.60
2023-03-11T03:41:53.008Z,0.90
2023-03-11T03:43:58.820Z,0.60
2023-03-11T03:46:05.449Z,0.90
2023-03-11T03:48:16.132Z,0.60
2023-03-11T03:50:22.551Z,0.70
2023-03-11T03:52:27.863Z,0.70
2023-03-11T03:54:32.720Z,0.60
2023-03-11T03:56:38.041Z,0.50
2023-03-11T03:58:42.977Z,0.80
2023-03-11T04:00:48.057Z,0.50
2023-03-11T04:02:52.951Z,0.80
2023-03-11T04:05:03.613Z,0.70
2023-03-11T04:07:08.514Z,0.50
2023-03-11T04:09:16.573Z,0.50
2023-03-11T04:11:22.154Z,0.50
2023-03-11T04:13:26.900Z,0.50
2023-03-11T04:15:32.658Z,0.70
2023-03-11T04:17:38.136Z,0.50
2023-03-11T04:19:42.984Z,0.50
2023-03-11T04:21:48.180Z,0.50
2023-03-11T04:23:52.998Z,0.40
2023-03-11T04:25:58.638Z,0.60
2023-03-11T04:28:03.440Z,0.40
2023-03-11T04:30:11.379Z,0.30
2023-03-11T04:32:16.261Z,0.40
2023-03-11T04:34:21.865Z,0.30
2023-03-11T04:36:27.321Z,0.50
2023-03-11T04:38:32.011Z,0.40
2023-03-11T04:40:38.058Z,0.30
2023-03-11T04:42:43.033Z,0.30
2023-03-11T04:44:47.917Z,0.40
2023-03-11T04:46:53.032Z,0.30
2023-03-11T04:48:57.773Z,0.30
2023-03-11T04:51:02.748Z,0.30
2023-03-11T04:53:07.608Z,0.30
2023-03-11T04:55:13.574Z,0.30
2023-03-11T04:57:18.638Z,0.20
2023-03-11T04:59:23.508Z,0.30
2023-03-11T05:01:28.851Z,0.50
2023-03-11T05:03:35.024Z,0.30
2023-03-11T05:05:39.877Z,0.40
2023-03-11T05:07:44.674Z,0.40
2023-03-11T05:09:50.099Z,0.40
2023-03-11T05:11:54.885Z,0.50
2023-03-11T05:13:59.721Z,0.40
2023-03-11T05:16:08.045Z,0.50
2023-03-11T05:18:12.941Z,0.40
2023-03-11T05:20:18.612Z,0.30
2023-03-11T05:22:23.923Z,0.40
2023-03-11T05:24:28.921Z,0.40
2023-03-11T05:26:34.082Z,0.50
2023-03-11T05:28:39.164Z,0.40
2023-03-11T05:30:43.917Z,0.40
2023-03-11T05:32:48.763Z,0.40
2023-03-11T05:34:53.698Z,0.40
2023-03-11T05:36:59.684Z,0.40
2023-03-11T05:39:06.849Z,0.40
2023-03-11T05:41:12.176Z,0.30
2023-03-11T05:43:18.100Z,0.40
2023-03-11T05:45:27.526Z,0.40
2023-03-11T05:47:32.661Z,0.40
2023-03-11T05:49:37.566Z,0.50
2023-03-11T05:51:42.528Z,0.40
2023-03-11T05:53:48.695Z,0.40
2023-03-11T05:56:00.720Z,0.40
2023-03-11T05:58:08.358Z,0.30
2023-03-11T06:00:14.709Z,0.50
2023-03-11T06:02:21.085Z,0.40
2023-03-11T06:04:26.826Z,0.30
2023-03-11T06:06:32.188Z,0.40
2023-03-11T06:08:38.167Z,0.50
2023-03-11T06:10:43.471Z,0.50
2023-03-11T06:12:48.460Z,0.40
2023-03-11T06:15:06.959Z,0.30
2023-03-11T06:17:11.708Z,0.30
2023-03-11T06:19:16.455Z,0.40
2023-03-11T06:21:26.317Z,0.50
2023-03-11T06:23:32.022Z,0.50
2023-03-11T06:25:37.199Z,0.40
2023-03-11T06:27:41.869Z,0.40
2023-03-11T06:29:48.651Z,0.60
2023-03-11T06:31:53.985Z,0.50
2023-03-11T06:33:58.797Z,0.50
2023-03-11T06:36:05.202Z,0.50
2023-03-11T06:38:10.101Z,0.50
2023-03-11T06:40:16.540Z,0.60
2023-03-11T06:42:21.653Z,0.50
2023-03-11T06:44:26.763Z,0.50
2023-03-11T06:46:31.636Z,0.70
2023-03-11T06:48:36.386Z,0.60
2023-03-11T06:50:41.172Z,0.70
2023-03-11T06:52:45.833Z,0.70
2023-03-11T06:54:51.276Z,0.50
2023-03-11T06:56:55.918Z,0.50
2023-03-11T06:59:00.598Z,0.60
2023-03-11T07:01:11.099Z,0.70
2023-03-11T07:03:16.063Z,0.50
2023-03-11T07:05:21.696Z,0.50
2023-03-11T07:07:26.593Z,0.60
2023-03-11T07:09:31.523Z,0.70
2023-03-11T07:11:36.441Z,0.50
2023-03-11T07:13:46.737Z,0.50
2023-03-11T07:15:59.115Z,0.50
2023-03-11T07:18:03.936Z,0.50
2023-03-11T07:20:11.084Z,0.50
2023-03-11T07:22:15.928Z,0.50
2023-03-11T07:24:21.022Z,0.60
2023-03-11T07:26:27.376Z,0.60
2023-03-11T07:28:32.277Z,0.70
2023-03-11T07:30:40.073Z,0.60
2023-03-11T07:32:44.805Z,0.70
2023-03-11T07:34:49.617Z,0.60
2023-03-11T07:36:54.295Z,0.70
2023-03-11T07:39:03.143Z,0.70
2023-03-11T07:41:09.158Z,0.60
2023-03-11T07:43:13.829Z,0.80
2023-03-11T07:45:21.691Z,0.70
2023-03-11T07:47:26.351Z,0.60
2023-03-11T07:49:31.317Z,0.80
2023-03-11T07:51:39.672Z,0.70
2023-03-11T07:53:44.802Z,0.70
2023-03-11T07:55:55.028Z,0.70
2023-03-11T07:57:59.764Z,0.70
2023-03-11T08:00:05.081Z,0.70
2023-03-11T08:02:16.405Z,0.60
2023-03-11T08:04:21.098Z,0.70
2023-03-11T08:06:28.278Z,0.60
2023-03-11T08:08:32.939Z,0.60
2023-03-11T08:10:39.650Z,0.60
2023-03-11T08:12:44.345Z,0.70
2023-03-11T08:14:49.512Z,0.80
2023-03-11T08:16:54.197Z,0.70
2023-03-11T08:18:59.207Z,0.70
2023-03-11T08:21:07.740Z,0.70
2023-03-11T08:23:12.609Z,0.80
2023-03-11T08:25:17.648Z,0.70
2023-03-11T08:27:22.363Z,0.70
2023-03-11T08:29:27.250Z,0.70
2023-03-11T08:31:33.512Z,0.70
2023-03-11T08:33:38.287Z,0.90
2023-03-11T08:35:43.135Z,0.80
2023-03-11T08:37:50.834Z,0.80
2023-03-11T08:39:55.447Z,0.80
2023-03-11T08:42:00.082Z,0.90
2023-03-11T08:44:05.180Z,0.90
2023-03-11T08:46:14.346Z,0.80
2023-03-11T08:48:19.072Z,0.70
2023-03-11T08:50:23.986Z,0.80
2023-03-11T08:52:28.694Z,0.60
2023-03-11T08:54:33.733Z,0.70
2023-03-11T08:56:38.406Z,0.80
2023-03-11T08:58:43.142Z,0.70
2023-03-11T09:00:47.989Z,0.80
2023-03-11T09:02:52.757Z,0.70
2023-03-11T09:04:57.436Z,0.60
2023-03-11T09:07:02.047Z,0.50
2023-03-11T09:09:06.749Z,0.70
2023-03-11T09:11:13.180Z,0.60
2023-03-11T09:13:17.875Z,0.60
2023-03-11T09:15:22.633Z,0.60
2023-03-11T09:17:27.339Z,0.70
2023-03-11T09:19:31.986Z,0.50
2023-03-11T09:21:37.110Z,0.60
2023-03-11T09:23:44.149Z,0.60
2023-03-11T09:25:49.336Z,0.40
2023-03-11T09:27:54.125Z,0.50
2023-03-11T09:29:58.875Z,0.50
2023-03-11T09:32:03.742Z,0.50
2023-03-11T09:34:08.513Z,0.50
2023-03-11T09:36:15.499Z,0.40
2023-03-11T09:38:23.088Z,0.50
2023-03-11T09:40:52.452Z,0.50
2023-03-11T09:43:11.064Z,0.60
2023-03-11T09:45:19.443Z,0.60
2023-03-11T09:47:42.218Z,0.60
2023-03-11T09:50:23.193Z,0.50
2023-03-11T09:52:38.134Z,0.50
2023-03-11T09:54:45.889Z,0.50
2023-03-11T09:56:50.892Z,0.40
2023-03-11T09:59:01.439Z,0.40
2023-03-11T10:01:15.169Z,0.60
2023-03-11T10:03:32.865Z,0.60
2023-03-11T10:05:38.387Z,0.40
2023-03-11T10:07:45.641Z,0.40
2023-03-11T10:09:54.130Z,0.40
2023-03-11T10:12:20.191Z,0.40
2023-03-11T10:14:40.749Z,0.30
2023-03-11T10:16:56.798Z,0.30
2023-03-11T10:19:11.356Z,0.30
2023-03-11T10:21:26.071Z,0.40
2023-03-11T10:23:42.415Z,0.50
2023-03-11T10:25:59.779Z,0.50
2023-03-11T10:28:11.996Z,0.40
2023-03-11T10:30:29.722Z,0.50
2023-03-11T10:32:41.105Z,0.50
2023-03-11T10:34:51.710Z,0.50
2023-03-11T10:37:02.401Z,0.70
2023-03-11T10:39:09.969Z,0.30
2023-03-11T10:41:20.585Z,1.70
2023-03-11T10:43:31.748Z,0.70
2023-03-11T10:45:40.442Z,0.80
2023-03-11T10:47:45.096Z,0.70
2023-03-11T10:49:49.960Z,1.00
2023-03-11T10:51:56.212Z,0.60
2023-03-11T10:54:03.345Z,0.40
2023-03-11T10:56:19.193Z,0.40
2023-03-11T10:58:26.274Z,0.60
2023-03-11T11:00:31.752Z,0.40
2023-03-11T11:02:43.663Z,0.60
2023-03-11T11:04:49.277Z,0.80
2023-03-11T11:06:53.952Z,0.70
2023-03-11T11:09:14.134Z,0.70
2023-03-11T11:11:24.539Z,0.60
2023-03-11T11:13:30.881Z,0.60
2023-03-11T11:15:37.480Z,0.60
2023-03-11T11:17:49.042Z,0.90
2023-03-11T11:19:55.156Z,0.50
2023-03-11T11:22:05.445Z,0.60
2023-03-11T11:24:20.348Z,0.80
2023-03-11T11:26:26.431Z,0.80
2023-03-11T11:28:31.577Z,0.60
2023-03-11T11:30:36.210Z,0.70
2023-03-11T11:32:41.011Z,0.70
2023-03-11T11:34:56.854Z,0.60
2023-03-11T11:37:04.263Z,0.60
2023-03-11T11:39:17.008Z,0.70
2023-03-11T11:41:24.301Z,0.70
2023-03-11T11:43:48.307Z,0.90
2023-03-11T11:45:57.489Z,0.70
2023-03-11T11:48:10.222Z,0.60
2023-03-11T11:50:31.672Z,0.60
2023-03-11T11:52:45.077Z,0.90
2023-03-11T11:54:54.230Z,0.80
2023-03-11T11:57:01.316Z,0.50
2023-03-11T11:59:15.081Z,0.60
2023-03-11T12:01:28.772Z,0.60
2023-03-11T12:04:00.705Z,0.60
2023-03-11T12:06:12.320Z,0.70
2023-03-11T12:08:22.339Z,0.60
2023-03-11T12:10:31.915Z,0.70
2023-03-11T12:12:45.552Z,0.90
2023-03-11T12:14:57.763Z,0.60
2023-03-11T12:17:04.490Z,0.70
2023-03-11T12:19:19.136Z,1.00
2023-03-11T12:21:35.800Z,0.70
2023-03-11T12:23:55.121Z,1.10
2023-03-11T12:26:13.550Z,0.90
2023-03-11T12:28:23.762Z,0.50
2023-03-11T12:30:31.808Z,0.50
2023-03-11T12:32:42.217Z,0.60
2023-03-11T12:34:48.873Z,0.50
2023-03-11T12:36:55.998Z,0.70
2023-03-11T12:39:02.130Z,1.00
2023-03-11T12:41:26.436Z,0.80
2023-03-11T12:44:01.603Z,1.00
2023-03-11T12:46:07.832Z,0.60
2023-03-11T12:48:41.564Z,0.60
2023-03-11T12:50:46.369Z,0.60
2023-03-11T12:52:55.380Z,0.60
2023-03-11T12:55:36.454Z,0.60
2023-03-11T12:57:52.861Z,0.80
2023-03-11T13:00:21.168Z,1.00
2023-03-11T13:02:43.172Z,0.60
2023-03-11T13:05:00.040Z,0.50
2023-03-11T13:07:28.641Z,0.50
2023-03-11T13:09:33.366Z,0.60
2023-03-11T13:11:44.763Z,0.70
2023-03-11T13:13:49.507Z,0.80
2023-03-11T13:15:55.110Z,0.50
2023-03-11T13:18:02.356Z,0.60
2023-03-11T13:20:43.300Z,0.70
2023-03-11T13:23:24.541Z,0.80
2023-03-11T13:25:43.624Z,0.70
2023-03-11T13:27:51.801Z,0.60
2023-03-11T13:30:06.334Z,0.50
2023-03-11T13:32:42.321Z,0.70
2023-03-11T13:34:54.864Z,0.60
2023-03-11T13:37:20.840Z,0.60
2023-03-11T13:39:37.090Z,0.60
2023-03-11T13:41:43.941Z,0.80
2023-03-11T13:43:51.339Z,0.80
2023-03-11T13:46:02.075Z,0.50
2023-03-11T13:48:13.965Z,0.60
2023-03-11T13:50:26.190Z,0.50
2023-03-11T13:52:35.030Z,0.50
2023-03-11T13:54:46.495Z,0.40
2023-03-11T13:56:56.791Z,0.70
2023-03-11T13:59:18.465Z,0.60
2023-03-11T14:01:23.642Z,0.50
2023-03-11T14:03:33.733Z,0.60
2023-03-11T14:05:45.495Z,0.60
2023-03-11T14:07:50.489Z,0.90
2023-03-11T14:10:24.573Z,1.10
2023-03-11T14:12:32.625Z,1.00
2023-03-11T14:14:56.663Z,0.90
2023-03-11T14:17:02.906Z,0.90
2023-03-11T14:19:14.531Z,0.90
2023-03-11T14:21:22.598Z,0.80
2023-03-11T14:23:30.720Z,1.00
2023-03-11T14:25:35.814Z,0.90
2023-03-11T14:27:46.421Z,1.00
2023-03-11T14:29:52.174Z,0.80
2023-03-11T14:31:57.484Z,0.70
2023-03-11T14:34:04.892Z,0.80
2023-03-11T14:36:15.285Z,0.60
2023-03-11T14:38:24.887Z,0.80
2023-03-11T14:40:33.038Z,1.10
2023-03-11T14:42:41.310Z,1.00
2023-03-11T14:44:52.531Z,0.90
2023-03-11T14:47:04.778Z,1.00
2023-03-11T14:49:16.299Z,0.90
2023-03-11T14:51:27.176Z,1.00
2023-03-11T14:53:37.895Z,0.70
2023-03-11T14:55:47.836Z,1.10
2023-03-11T14:57:57.554Z,1.40
2023-03-11T15:00:04.998Z,1.00
2023-03-11T15:02:33.175Z,0.80
2023-03-11T15:04:41.208Z,0.70
2023-03-11T15:06:47.756Z,0.50
2023-03-11T15:08:56.362Z,1.40
2023-03-11T15:11:06.756Z,0.90
2023-03-11T15:13:16.584Z,0.80
2023-03-11T15:15:28.163Z,0.60
2023-03-11T15:17:39.497Z,0.70
2023-03-11T15:19:48.322Z,0.60
2023-03-11T15:21:54.649Z,0.70
2023-03-11T15:24:03.214Z,0.50
2023-03-11T15:26:16.866Z,1.10
2023-03-11T15:28:28.248Z,1.10
2023-03-11T15:30:33.305Z,0.90
2023-03-11T15:32:42.633Z,0.70
2023-03-11T15:34:59.885Z,0.60
2023-03-11T15:37:21.495Z,0.70
2023-03-11T15:39:40.833Z,0.70
2023-03-11T15:41:47.601Z,0.80
2023-03-11T15:43:53.611Z,0.80
2023-03-11T15:46:02.109Z,0.60
2023-03-11T15:48:10.221Z,0.90
2023-03-11T15:50:46.791Z,1.00
2023-03-11T15:53:00.770Z,0.50
2023-03-11T15:55:07.403Z,0.80
2023-03-11T15:57:20.946Z,0.60
2023-03-11T15:59:29.051Z,0.70
2023-03-11T16:01:35.012Z,0.70
2023-03-11T16:03:39.963Z,1.00
2023-03-11T16:05:47.207Z,0.70
2023-03-11T16:07:52.111Z,0.50
2023-03-11T16:09:58.416Z,0.60
2023-03-11T16:12:09.279Z,0.70
2023-03-11T16:14:19.152Z,0.60
2023-03-11T16:16:25.363Z,0.50
2023-03-11T16:18:30.809Z,0.70
2023-03-11T16:20:40.171Z,0.60
2023-03-11T16:22:46.055Z,0.40
2023-03-11T16:24:54.042Z,0.70
2023-03-11T16:26:59.371Z,0.50
2023-03-11T16:29:18.298Z,0.60
2023-03-11T16:31:24.655Z,0.50
2023-03-11T16:33:29.817Z,0.50
2023-03-11T16:35:35.919Z,0.80
2023-03-11T16:37:41.697Z,0.70
2023-03-11T16:39:47.107Z,0.70
2023-03-11T16:41:54.642Z,0.60
2023-03-11T16:43:59.445Z,0.70
2023-03-11T16:46:04.776Z,1.00
2023-03-11T16:48:11.006Z,0.90
2023-03-11T16:50:16.973Z,1.00
2023-03-11T16:52:23.236Z,1.00
2023-03-11T16:54:28.816Z,0.90
2023-03-11T16:56:34.981Z,1.00
2023-03-11T16:58:40.535Z,0.80
2023-03-11T17:00:46.606Z,0.80
2023-03-11T17:02:52.738Z,0.70
2023-03-11T17:04:58.413Z,0.60
2023-03-11T17:07:04.446Z,0.90
2023-03-11T17:09:09.959Z,0.90
2023-03-11T17:11:19.890Z,0.90
2023-03-11T17:13:26.605Z,0.90
2023-03-11T17:15:33.267Z,0.80
2023-03-11T17:17:38.820Z,0.60
2023-03-11T17:19:44.754Z,0.80
2023-03-11T17:21:51.567Z,0.80
2023-03-11T17:23:57.528Z,1.00
2023-03-11T17:26:02.831Z,0.70
2023-03-11T17:28:09.605Z,1.10
2023-03-11T17:30:35.586Z,1.70
2023-03-11T17:32:43.488Z,1.10
2023-03-11T17:34:50.569Z,0.80
2023-03-11T17:36:57.949Z,1.20
2023-03-11T17:39:03.831Z,0.90
2023-03-11T17:41:14.939Z,0.90
2023-03-11T17:43:21.199Z,0.90
2023-03-11T17:45:28.487Z,1.10
2023-03-11T17:47:35.473Z,0.90
2023-03-11T17:49:41.977Z,1.10
2023-03-11T17:51:51.750Z,1.00
2023-03-11T17:53:59.101Z,1.70
2023-03-11T17:56:06.346Z,1.30
2023-03-11T17:58:12.738Z,1.30
2023-03-11T18:00:20.351Z,1.10
2023-03-11T18:02:26.915Z,1.40
2023-03-11T18:04:33.514Z,1.20
2023-03-11T18:06:39.635Z,1.00
2023-03-11T18:08:45.779Z,1.00
2023-03-11T18:10:53.857Z,1.00
2023-03-11T18:13:03.399Z,1.10
2023-03-11T18:15:12.026Z,1.30
2023-03-11T18:17:19.954Z,1.00
2023-03-11T18:19:25.667Z,1.00
2023-03-11T18:21:32.148Z,1.00
2023-03-11T18:23:37.710Z,1.10
2023-03-11T18:25:43.596Z,0.90
2023-03-11T18:27:49.151Z,1.00
2023-03-11T18:29:55.633Z,1.10
2023-03-11T18:32:02.598Z,1.00
2023-03-11T18:34:08.680Z,0.90
2023-03-11T18:36:16.999Z,1.30
2023-03-11T18:38:24.102Z,1.30
2023-03-11T18:40:29.592Z,0.90
2023-03-11T18:42:36.847Z,1.20
2023-03-11T18:44:43.132Z,1.40
2023-03-11T18:46:50.946Z,1.30
2023-03-11T18:48:57.369Z,1.30
2023-03-11T18:51:06.809Z,1.00
2023-03-11T18:53:13.309Z,1.20
2023-03-11T18:55:19.975Z,1.40
2023-03-11T18:57:26.432Z,1.10
2023-03-11T18:59:32.822Z,1.20
2023-03-11T19:01:40.012Z,1.30
2023-03-11T19:03:50.118Z,1.20
2023-03-11T19:05:59.899Z,1.10
2023-03-11T19:08:06.911Z,1.20
2023-03-11T19:10:14.172Z,1.40
2023-03-11T19:12:20.942Z,1.50
2023-03-11T19:14:26.756Z,1.10
2023-03-11T19:16:34.016Z,1.10
2023-03-11T19:18:40.348Z,1.20
2023-03-11T19:20:56.999Z,1.00
2023-03-11T19:23:02.564Z,1.30
2023-03-11T19:25:10.392Z,1.00
2023-03-11T19:27:18.890Z,1.40
2023-03-11T19:29:26.049Z,1.50
2023-03-11T19:31:33.965Z,1.10
2023-03-11T19:33:40.191Z,1.20
2023-03-11T19:35:51.808Z,1.30
2023-03-11T19:37:57.812Z,1.20
2023-03-11T19:40:03.586Z,1.10
2023-03-11T19:42:13.140Z,1.10
2023-03-11T19:44:22.362Z,1.20
2023-03-11T19:46:28.273Z,1.20
2023-03-11T19:48:34.885Z,1.20
2023-03-11T19:50:47.658Z,1.40
2023-03-11T19:52:54.396Z,1.40
2023-03-11T19:55:00.745Z,1.10
2023-03-11T19:57:07.774Z,1.20
2023-03-11T19:59:14.433Z,1.10
2023-03-11T20:01:21.944Z,1.30
2023-03-11T20:03:29.261Z,1.10
2023-03-11T20:05:37.041Z,1.50
2023-03-11T20:07:43.479Z,1.40
2023-03-11T20:09:49.550Z,1.40
2023-03-11T20:11:55.402Z,1.10
2023-03-11T20:14:02.719Z,1.70
2023-03-11T20:16:12.721Z,1.20
2023-03-11T20:18:20.195Z,1.40
2023-03-11T20:20:25.575Z,1.40
2023-03-11T20:22:30.778Z,1.40
2023-03-11T20:24:36.733Z,1.30
2023-03-11T20:26:42.741Z,1.40
2023-03-11T20:28:48.663Z,1.40
2023-03-11T20:30:58.805Z,1.30
2023-03-11T20:33:05.385Z,1.30
2023-03-11T20:35:13.674Z,1.40
2023-03-11T20:37:19.737Z,1.40
2023-03-11T20:39:26.900Z,1.30
2023-03-11T20:41:37.814Z,1.50
2023-03-11T20:43:45.260Z,1.60
2023-03-11T20:45:51.236Z,1.40
2023-03-11T20:47:57.329Z,1.30
2023-03-11T20:50:03.204Z,1.50
2023-03-11T20:52:09.563Z,1.50
2023-03-11T20:54:15.953Z,1.30
2023-03-11T20:56:24.035Z,1.60
2023-03-11T20:58:29.802Z,1.40
2023-03-11T21:00:35.525Z,1.30
2023-03-11T21:02:42.268Z,1.40
2023-03-11T21:04:48.677Z,1.50
2023-03-11T21:06:54.437Z,1.40
2023-03-11T21:09:02.054Z,1.30
2023-03-11T21:11:08.211Z,1.60
2023-03-11T21:13:13.589Z,1.80
2023-03-11T21:15:20.647Z,1.50
2023-03-11T21:17:26.311Z,1.50
2023-03-11T21:19:32.233Z,1.40
2023-03-11T21:21:38.326Z,1.50
2023-03-11T21:23:44.359Z,1.40
2023-03-11T21:25:49.730Z,1.30
2023-03-11T21:27:54.798Z,1.30
2023-03-11T21:30:01.008Z,1.40
2023-03-11T21:32:06.369Z,1.30
2023-03-11T21:34:12.370Z,1.30
2023-03-11T21:36:18.347Z,1.50
2023-03-11T21:38:23.616Z,1.50
2023-03-11T21:40:29.220Z,1.50
2023-03-11T21:42:34.503Z,1.40
2023-03-11T21:44:40.479Z,1.40
2023-03-11T21:46:45.235Z,1.50
2023-03-11T21:48:50.461Z,1.50
2023-03-11T21:50:55.183Z,1.40
2023-03-11T21:53:00.209Z,1.60
2023-03-11T21:55:05.589Z,1.80
2023-03-11T21:57:13.081Z,1.80
2023-03-11T21:59:18.020Z,1.60
2023-03-11T22:01:22.897Z,1.80
2023-03-11T22:03:28.095Z,1.50
2023-03-11T22:05:33.170Z,1.80
2023-03-11T22:07:38.126Z,1.80
2023-03-11T22:09:43.083Z,1.80
2023-03-11T22:11:47.951Z,1.90
2023-03-11T22:13:54.502Z,2.10
2023-03-11T22:16:01.769Z,1.80
2023-03-11T22:18:06.801Z,2.10
2023-03-11T22:20:13.447Z,1.70
2023-03-11T22:22:18.454Z,1.60
2023-03-11T22:24:23.212Z,1.80
2023-03-11T22:26:27.954Z,1.70
2023-03-11T22:28:33.290Z,1.70
2023-03-11T22:30:38.224Z,1.40
2023-03-11T22:32:43.045Z,1.60
2023-03-11T22:34:47.719Z,1.60
2023-03-11T22:36:52.452Z,2.00
2023-03-11T22:38:57.268Z,1.80
2023-03-11T22:41:03.584Z,1.90
2023-03-11T22:43:08.343Z,1.80
2023-03-11T22:45:13.581Z,2.10
2023-03-11T22:47:18.354Z,1.80
2023-03-11T22:49:23.043Z,1.90
2023-03-11T22:51:27.882Z,1.90
2023-03-11T22:53:32.637Z,1.90
2023-03-11T22:55:41.402Z,1.80
2023-03-11T22:57:46.272Z,1.90
2023-03-11T22:59:51.094Z,1.90
2023-03-11T23:01:56.795Z,1.80
2023-03-11T23:04:01.513Z,1.80
2023-03-11T23:06:08.756Z,1.80
2023-03-11T23:08:16.163Z,2.00
2023-03-11T23:10:21.460Z,1.90
2023-03-11T23:12:26.325Z,1.90
2023-03-11T23:14:44.149Z,1.80
2023-03-11T23:16:49.978Z,1.80
2023-03-11T23:18:58.880Z,1.90
2023-03-11T23:21:03.833Z,1.60
2023-03-11T23:23:09.030Z,1.80
2023-03-11T23:25:16.583Z,1.80
2023-03-11T23:27:21.351Z,1.90
2023-03-11T23:29:26.094Z,1.80
2023-03-11T23:31:31.101Z,1.80
2023-03-11T23:33:35.997Z,1.90
2023-03-11T23:35:43.158Z,1.90
2023-03-11T23:37:50.826Z,2.10
2023-03-11T23:39:55.635Z,1.90
2023-03-11T23:42:02.064Z,2.10
2023-03-11T23:44:06.992Z,2.00
2023-03-11T23:46:11.836Z,2.10
2023-03-11T23:48:16.531Z,1.80
2023-03-11T23:50:21.389Z,2.10
2023-03-11T23:52:26.508Z,2.00
2023-03-11T23:54:31.162Z,2.10
2023-03-11T23:56:35.806Z,2.40
2023-03-11T23:58:40.650Z,2.00
